Time;durP1;ratioP1;P1;durP2;ratioP2;P2;SDS_P1;SDS_P2;PMS_P1;PMS_P2;Temp;Humidity;BMP_temperature;BMP_pressure;BME280_temperature;BME280_humidity;BME280_pressure;Samples;Min_cycle;Max_cycle;Signal;HPM_P1;HPM_P2
2023/01/26 00:00:03;;;;;;;;;;;;;;;6.27;52.61;99607.53;4981584;28;19918;-90
2023/01/26 00:02:29;;;;;;;;;;;;;;;6.28;52.29;99606.63;4997171;28;19917;-89
2023/01/26 00:04:55;;;;;;;;;;;;;;;6.27;52.50;99594.56;4996262;28;19921;-91
2023/01/26 00:07:20;;;;;;;;;;;;;;;6.27;52.86;99594.56;4996989;28;19917;-90
2023/01/26 00:09:46;;;;;;;;;;;;;;;6.27;51.96;99599.75;4981967;28;19925;-90
2023/01/26 00:12:11;;;;;;;;;;;;;;;6.27;52.74;99591.13;4981338;28;20444;-91
2023/01/26 00:14:49;;;;;;;;;;;;;;;6.26;51.96;99584.25;4980943;28;19967;-90
2023/01/26 00:17:24;;;;;;;;;;;;;;;6.27;52.18;99585.94;4996795;28;19930;-91
2023/01/26 00:19:54;;;;;;;;;;;;;;;6.27;52.36;99585.94;5015530;28;20288;-90
2023/01/26 00:22:19;;;;;;;;;;;;;;;6.26;52.40;99589.44;4981007;28;19918;-90
2023/01/26 00:24:44;;;;;;;;;;;;;;;6.25;52.36;99588.59;4980795;28;19940;-89
2023/01/26 00:27:10;;;;;;;;;;;;;;;6.25;52.51;99588.59;4980573;28;20241;-89
2023/01/26 00:29:36;;;;;;;;;;;;;;;6.24;52.20;99592.09;4980404;28;19924;-91
2023/01/26 00:32:01;;;;;;;;;;;;;;;6.25;52.56;99598.97;4997366;28;20012;-87
2023/01/26 00:34:26;;;;;;;;;;;;;;;6.23;52.49;99598.22;4996212;28;19995;-89
2023/01/26 00:36:52;;;;;;;;;;;;;;;6.23;52.78;99598.22;4979986;28;20412;-89
2023/01/26 00:39:18;;;;;;;;;;;;;;;6.24;52.79;99596.44;4996399;28;19917;-89
2023/01/26 00:44:28;;;;;;;;;;;;;;;6.23;52.81;99586.97;4998344;28;20399;-90
2023/01/26 00:46:53;;;;;;;;;;;;;;;6.23;52.47;99577.47;4979698;28;19917;-88
2023/01/26 00:49:18;;;;;;;;;;;;;;;6.25;52.44;99575.63;4979665;28;19952;-87
2023/01/26 00:51:43;;;;;;;;;;;;;;;6.27;52.48;99571.22;4995549;28;19922;-89
2023/01/26 00:54:09;;;;;;;;;;;;;;;6.26;52.73;99564.38;4980145;28;19918;-88
2023/01/26 00:56:35;;;;;;;;;;;;;;;6.27;52.40;99553.06;4979338;28;19960;-89
2023/01/26 00:59:00;;;;;;;;;;;;;;;6.28;52.21;99565.13;5013551;28;20292;-88
2023/01/26 01:01:26;;;;;;;;;;;;;;;6.27;51.98;99555.66;4979657;28;19925;-89
2023/01/26 01:03:51;;;;;;;;;;;;;;;6.28;52.52;99548.75;4979806;28;20395;-89
2023/01/26 01:06:19;;;;;;;;;;;;;;;6.28;52.91;99544.38;4996275;28;19924;-88
2023/01/26 01:08:44;;;;;;;;;;;;;;;6.27;52.42;99534.91;4995843;28;19918;-89
2023/01/26 01:11:10;;;;;;;;;;;;;;;6.27;52.39;99537.50;4997477;28;20423;-88
2023/01/26 01:13:38;;;;;;;;;;;;;;;6.26;52.53;99541.03;4979562;28;19924;-89
2023/01/26 01:16:08;;;;;;;;;;;;;;;6.25;52.51;99535.91;4995809;28;19940;-90
2023/01/26 01:18:34;;;;;;;;;;;;;;;6.25;52.38;99528.13;4979372;28;19921;-90
2023/01/26 01:21:00;;;;;;;;;;;;;;;6.24;51.96;99529.03;4995877;28;19924;-88
2023/01/26 01:23:29;;;;;;;;;;;;;;;6.23;52.44;99527.34;4995672;28;20015;-89
2023/01/26 01:25:58;;;;;;;;;;;;;;;6.22;51.98;99521.34;5014232;28;20005;-89
2023/01/26 01:28:24;;;;;;;;;;;;;;;6.22;52.15;99523.94;4980510;28;20312;-91
2023/01/26 01:30:49;;;;;;;;;;;;;;;6.24;52.01;99521.25;4996582;28;19917;-90
2023/01/26 01:33:15;;;;;;;;;;;;;;;6.24;51.92;99519.50;4979481;28;20418;-90
2023/01/26 01:35:40;;;;;;;;;;;;;;;6.24;52.28;99521.25;4979596;28;19924;-90
2023/01/26 01:38:05;;;;;;;;;;;;;;;6.23;52.56;99524.75;4979302;28;20496;-89
2023/01/26 01:40:31;;;;;;;;;;;;;;;6.23;51.78;99524.75;4979007;28;20420;-89
2023/01/26 01:42:57;;;;;;;;;;;;;;;6.25;51.87;99522.94;4996155;28;20277;-90
2023/01/26 01:45:25;;;;;;;;;;;;;;;6.25;51.51;99520.34;4979878;28;19918;-91
2023/01/26 01:47:51;;;;;;;;;;;;;;;6.23;52.12;99523.03;5013200;28;19952;-90
2023/01/26 01:50:18;;;;;;;;;;;;;;;6.25;51.87;99531.56;4979121;28;19972;-88
2023/01/26 01:52:43;;;;;;;;;;;;;;;6.25;51.65;99528.97;5013234;28;19924;-88
2023/01/26 01:55:09;;;;;;;;;;;;;;;6.24;51.78;99521.25;4997410;28;19917;-90
2023/01/26 01:58:05;;;;;;;;;;;;;;;6.23;51.82;99512.66;4982991;28;19960;-89
2023/01/26 02:00:31;;;;;;;;;;;;;;;6.23;51.95;99517.84;4956312;29;19925;-88
2023/01/26 02:03:10;;;;;;;;;;;;;;;6.23;51.75;99511.78;4939394;29;20448;-89
2023/01/26 02:05:50;;;;;;;;;;;;;;;6.24;52.12;99503.13;4940390;29;19973;-89
2023/01/26 02:08:16;;;;;;;;;;;;;;;6.23;50.95;99512.66;4940845;29;20037;-89
2023/01/26 02:10:42;;;;;;;;;;;;;;;6.21;51.44;99500.66;4924340;29;20009;-88
2023/01/26 02:13:08;;;;;;;;;;;;;;;6.23;51.22;99514.38;4924270;29;19918;-88
2023/01/26 02:15:34;;;;;;;;;;;;;;;6.21;51.07;99511.03;4940056;29;19961;-89
2023/01/26 02:18:00;;;;;;;;;;;;;;;6.22;51.63;99510.13;4923876;29;20013;-89
2023/01/26 02:20:40;;;;;;;;;;;;;;;6.22;51.53;99505.78;4924680;29;19981;-91
2023/01/26 02:23:12;;;;;;;;;;;;;;;6.22;50.98;99510.13;4940734;29;19926;-91
2023/01/26 02:25:43;;;;;;;;;;;;;;;6.19;51.41;99495.53;4927116;29;20009;-90
2023/01/26 02:28:09;;;;;;;;;;;;;;;6.20;51.80;99507.59;4943057;29;19926;-91
2023/01/26 02:30:38;;;;;;;;;;;;;;;6.20;51.53;99510.19;4949718;28;19919;-94
2023/01/26 02:33:07;;;;;;;;;;;;;;;6.21;51.49;99509.25;5005210;28;19976;-93
2023/01/26 02:44:30;;;;;;;;;;;;;;;6.20;51.66;99492.06;5016878;28;19924;-92
2023/01/26 02:46:56;;;;;;;;;;;;;;;6.19;51.31;99484.34;4999494;28;20018;-92
2023/01/26 02:52:05;;;;;;;;;;;;;;;6.18;51.01;99486.06;5002142;28;19975;-91
2023/01/26 02:57:14;;;;;;;;;;;;;;;6.19;51.24;99492.13;5002025;28;19928;-91
2023/01/26 02:59:40;;;;;;;;;;;;;;;6.17;51.04;99474.03;4982035;28;20308;-88
2023/01/26 03:02:05;;;;;;;;;;;;;;;6.18;51.21;99478.28;4998297;28;20032;-89
2023/01/26 03:04:31;;;;;;;;;;;;;;;6.20;50.99;99478.22;4982108;28;19924;-89
2023/01/26 03:06:56;;;;;;;;;;;;;;;6.21;50.99;99477.31;4981380;28;19969;-89
2023/01/26 03:09:21;;;;;;;;;;;;;;;6.20;51.64;99467.84;4982401;28;20402;-91
2023/01/26 03:11:47;;;;;;;;;;;;;;;6.20;51.19;99467.84;4982409;28;20431;-90
2023/01/26 03:14:13;;;;;;;;;;;;;;;6.19;51.42;99468.78;4998533;28;20305;-91
2023/01/26 03:16:41;;;;;;;;;;;;;;;6.19;51.53;99458.41;4982059;28;19992;-92
2023/01/26 03:29:47;;;;;;;;;;;;;;;6.15;51.09;99450.78;5001884;28;19975;-92
2023/01/26 03:32:14;;;;;;;;;;;;;;;6.14;50.90;99449.09;4998979;28;19917;-91
2023/01/26 03:34:40;;;;;;;;;;;;;;;6.13;50.54;99454.34;4982290;28;19921;-88
2023/01/26 03:37:05;;;;;;;;;;;;;;;6.13;50.87;99456.94;4998132;28;20367;-86
2023/01/26 03:56:18;;;;;;;;;;;;;;;6.13;51.54;99438.78;5014959;28;19948;-91
2023/01/26 03:58:53;;;;;;;;;;;;;;;6.12;51.41;99440.56;4983475;28;19937;-91
2023/01/26 04:01:20;;;;;;;;;;;;;;;6.11;51.55;99433.69;4997973;28;19932;-91
2023/01/26 04:09:14;;;;;;;;;;;;;;;6.09;51.93;99419.97;5000518;28;19963;-88
2023/01/26 04:11:39;;;;;;;;;;;;;;;6.09;52.03;99416.53;4980991;28;19921;-89
2023/01/26 04:22:21;;;;;;;;;;;;;;;6.07;52.59;99397.59;5015822;28;19925;-92
2023/01/26 04:24:47;;;;;;;;;;;;;;;6.06;52.77;99391.59;5014220;28;20393;-91
2023/01/26 04:27:14;;;;;;;;;;;;;;;6.06;52.72;99396.78;4996760;28;19971;-92
2023/01/26 04:29:41;;;;;;;;;;;;;;;6.04;52.70;99377.88;5014719;28;19917;-92
2023/01/26 04:32:12;;;;;;;;;;;;;;;6.05;52.47;99384.72;5005574;28;19921;-92
2023/01/26 04:34:38;;;;;;;;;;;;;;;6.04;53.10;99377.00;4981910;28;19917;-89
2023/01/26 04:37:04;;;;;;;;;;;;;;;6.06;53.11;99377.81;4996295;28;20400;-88
2023/01/26 04:39:29;;;;;;;;;;;;;;;6.03;52.86;99364.97;4979969;28;20304;-89
2023/01/26 04:41:55;;;;;;;;;;;;;;;6.02;53.14;99374.50;4980752;28;19936;-90
2023/01/26 04:44:21;;;;;;;;;;;;;;;6.02;52.99;99374.50;4997515;28;20459;-87
2023/01/26 04:46:47;;;;;;;;;;;;;;;6.02;52.78;99374.50;5014003;28;20384;-82
2023/01/26 04:49:13;;;;;;;;;;;;;;;6.03;53.44;99376.19;5013669;28;19917;-77
2023/01/26 04:51:38;;;;;;;;;;;;;;;6.05;52.91;99368.34;4996522;28;20270;-79
2023/01/26 04:54:04;;;;;;;;;;;;;;;6.03;53.15;99365.81;4995967;28;19918;-80
2023/01/26 04:56:33;;;;;;;;;;;;;;;6.04;53.45;99364.06;4996540;28;20439;-80
2023/01/26 04:58:59;;;;;;;;;;;;;;;6.03;52.88;99359.81;4979868;28;19917;-71
2023/01/26 05:01:24;;;;;;;;;;;;;;;6.04;52.94;99358.88;5013372;28;19925;-72
2023/01/26 05:03:49;;;;;;;;;;;;;;;6.03;53.42;99362.38;5013610;28;19917;-71
2023/01/26 05:06:15;;;;;;;;;;;;;;;6.03;53.00;99354.63;4996060;28;19948;-71
2023/01/26 05:08:40;;;;;;;;;;;;;;;6.03;52.81;99347.66;4995706;28;19975;-71
2023/01/26 05:11:05;;;;;;;;;;;;;;;6.05;52.66;99355.38;4979368;28;19969;-70
2023/01/26 05:13:31;;;;;;;;;;;;;;;6.16;61.13;99353.09;5013015;28;19917;-71
2023/01/26 05:15:56;;;;;;;;;;;;;;;6.17;58.87;99349.59;4994941;28;19925;-74
2023/01/26 05:18:21;;;;;;;;;;;;;;;6.17;58.47;99344.41;4979258;28;19921;-76
2023/01/26 05:20:47;;;;;;;;;;;;;;;6.16;57.58;99350.50;4995593;28;20020;-74
2023/01/26 05:23:12;;;;;;;;;;;;;;;6.15;57.09;99357.47;4994388;28;19922;-74
2023/01/26 05:25:37;;;;;;;;;;;;;;;6.16;56.55;99358.28;4992944;28;19917;-76
2023/01/26 05:28:03;;;;;;;;;;;;;;;6.18;56.15;99351.25;4974961;28;19918;-76
2023/01/26 05:30:29;;;;;;;;;;;;;;;6.17;54.98;99357.38;4975215;28;19925;-75
2023/01/26 05:32:59;;;;;;;;;;;;;;;6.18;55.06;99353.03;4976381;28;20369;-77
2023/01/26 05:35:24;;;;;;;;;;;;;;;6.19;54.51;99352.97;4993593;28;19917;-77
2023/01/26 05:37:49;;;;;;;;;;;;;;;6.18;54.75;99351.25;4975911;28;20309;-76
2023/01/26 05:40:15;;;;;;;;;;;;;;;6.18;54.19;99351.25;4993349;28;19922;-78
2023/01/26 05:42:41;;;;;;;;;;;;;;;6.16;54.12;99351.34;4960401;28;19968;-77
2023/01/26 05:45:06;;;;;;;;;;;;;;;6.17;54.03;99357.38;4975896;28;19922;-77
2023/01/26 05:47:32;;;;;;;;;;;;;;;6.19;54.23;99349.53;4976103;28;19925;-77
2023/01/26 05:49:57;;;;;;;;;;;;;;;6.20;54.06;99346.00;4976258;28;19918;-76
2023/01/26 05:52:22;;;;;;;;;;;;;;;6.20;54.11;99349.47;4975765;28;19957;-76
2023/01/26 05:54:47;;;;;;;;;;;;;;;6.20;53.35;99348.59;4993127;28;19961;-77
2023/01/26 05:57:13;;;;;;;;;;;;;;;6.20;53.14;99344.28;4975503;28;20334;-76
2023/01/26 05:59:38;;;;;;;;;;;;;;;6.20;52.96;99335.63;4993183;28;19917;-77
2023/01/26 06:02:04;;;;;;;;;;;;;;;6.21;53.32;99332.97;4976005;28;20286;-77
2023/01/26 06:04:29;;;;;;;;;;;;;;;6.24;53.12;99338.00;4975574;28;19917;-77
2023/01/26 06:06:54;;;;;;;;;;;;;;;6.23;52.96;99328.56;4975659;28;20044;-76
2023/01/26 06:09:20;;;;;;;;;;;;;;;6.22;52.69;99328.66;4976136;28;19976;-76
2023/01/26 06:11:45;;;;;;;;;;;;;;;6.23;52.04;99320.78;4976049;28;19922;-77
2023/01/26 06:14:11;;;;;;;;;;;;;;;6.22;52.61;99328.66;4960184;28;20297;-79
2023/01/26 06:16:36;;;;;;;;;;;;;;;6.21;52.49;99326.97;4959457;28;20385;-78
2023/01/26 06:19:01;;;;;;;;;;;;;;;6.22;52.34;99332.06;4959220;28;19929;-77
2023/01/26 06:21:26;;;;;;;;;;;;;;;6.23;52.39;99332.91;4975827;28;19918;-79
2023/01/26 06:23:52;;;;;;;;;;;;;;;6.23;52.83;99338.94;4975428;28;19918;-77
2023/01/26 06:26:17;;;;;;;;;;;;;;;6.22;52.71;99342.44;4975610;28;19921;-78
2023/01/26 06:28:42;;;;;;;;;;;;;;;6.23;53.30;99343.25;4975735;28;19922;-78
2023/01/26 06:31:09;;;;;;;;;;;;;;;6.24;52.80;99350.16;4960222;28;19921;-80
2023/01/26 06:33:35;;;;;;;;;;;;;;;6.40;59.29;99339.84;4969954;28;20172;-81
2023/01/26 06:36:01;;;;;;;;;;;;;;;6.48;58.44;99351.53;4976730;28;19918;-81
2023/01/26 06:38:27;;;;;;;;;;;;;;;6.49;58.07;99353.19;4975971;28;19925;-81
2023/01/26 06:40:52;;;;;;;;;;;;;;;6.48;57.30;99350.69;4960985;28;20282;-80
2023/01/26 06:43:17;;;;;;;;;;;;;;;6.48;56.76;99355.88;4979521;28;19942;-81
2023/01/26 06:45:43;;;;;;;;;;;;;;;6.48;56.94;99361.06;4979411;28;19917;-80
2023/01/26 06:48:08;;;;;;;;;;;;;;;6.60;65.02;99355.28;4962622;28;19925;-83
2023/01/26 06:50:33;;;;;;;;;;;;;;;6.66;61.22;99354.97;4996102;28;19917;-76
2023/01/26 06:52:59;;;;;;;;;;;;;;;6.68;59.60;99350.53;4981383;28;19918;-78
2023/01/26 06:55:35;;;;;;;;;;;;;;;6.69;58.86;99349.63;4998305;28;19991;-80
2023/01/26 06:58:00;;;;;;;;;;;;;;;6.71;58.38;99344.34;4982120;28;20007;-76
2023/01/26 07:00:25;;;;;;;;;;;;;;;6.69;57.26;99347.03;5017764;28;19918;-82
2023/01/26 07:02:51;;;;;;;;;;;;;;;6.72;56.47;99340.84;4982327;28;20004;-83
2023/01/26 07:05:16;;;;;;;;;;;;;;;6.73;56.68;99333.91;5000496;28;20360;-81
2023/01/26 07:07:42;;;;;;;;;;;;;;;6.72;56.68;99334.81;4981804;28;19956;-85
2023/01/26 07:10:07;;;;;;;;;;;;;;;6.72;56.29;99333.06;4982387;28;19918;-84
2023/01/26 07:12:40;;;;;;;;;;;;;;;6.74;56.99;99335.59;4985363;28;19926;-84
2023/01/26 07:15:05;;;;;;;;;;;;;;;6.74;56.71;99331.22;4983617;28;19961;-81
2023/01/26 07:17:30;;;;;;;;;;;;;;;6.76;56.42;99337.16;4999416;28;19933;-84
2023/01/26 07:19:56;;;;;;;;;;;;;;;6.75;56.04;99330.28;4999318;28;19960;-81
2023/01/26 07:22:21;;;;;;;;;;;;;;;6.75;55.92;99332.06;5019346;28;20427;-87
2023/01/26 07:24:46;;;;;;;;;;;;;;;6.73;55.97;99331.31;4996525;28;19918;-83
2023/01/26 07:27:12;;;;;;;;;;;;;;;6.72;55.95;99327.03;4980762;28;19924;-85
2023/01/26 07:29:37;;;;;;;;;;;;;;;6.72;55.57;99327.03;5000709;28;19979;-85
2023/01/26 07:32:02;;;;;;;;;;;;;;;6.72;55.39;99321.84;4997964;28;19921;-85
2023/01/26 07:34:28;;;;;;;;;;;;;;;6.72;55.05;99321.84;4997566;28;19918;-86
2023/01/26 07:36:53;;;;;;;;;;;;;;;6.73;54.77;99316.56;4964240;28;19940;-80
2023/01/26 07:39:18;;;;;;;;;;;;;;;6.73;54.95;99315.75;4995574;28;19918;-81
2023/01/26 07:41:43;;;;;;;;;;;;;;;7.07;73.13;99318.25;4980585;28;19976;-86
2023/01/26 07:44:09;;;;;;;;;;;;;;;7.63;77.61;99307.50;4964185;28;19918;-79
2023/01/26 07:46:34;;;;;;;;;;;;;;;8.51;79.86;99295.59;4995845;28;20012;-82
2023/01/26 07:48:59;;;;;;;;;;;;;;;8.49;74.61;99280.97;4962280;28;19918;-80
2023/01/26 07:51:25;;;;;;;;;;;;;;;8.38;66.04;99272.94;4962865;28;19922;-75
2023/01/26 07:53:50;;;;;;;;;;;;;;;8.28;64.95;99257.03;4994670;28;19925;-82
2023/01/26 07:56:18;;;;;;;;;;;;;;;8.24;64.15;99264.19;4963268;28;20385;-85
2023/01/26 07:58:44;;;;;;;;;;;;;;;8.13;64.30;99264.81;4978973;28;19918;-79
2023/01/26 08:01:11;;;;;;;;;;;;;;;8.06;63.89;99265.25;4978311;28;20400;-77
2023/01/26 08:03:36;;;;;;;;;;;;;;;8.05;65.83;99256.63;4961494;28;19917;-77
2023/01/26 08:06:01;;;;;;;;;;;;;;;8.01;64.74;99262.91;4961603;28;19928;-77
2023/01/26 08:08:27;;;;;;;;;;;;;;;7.92;64.01;99258.22;4961073;28;20309;-75
2023/01/26 08:11:01;;;;;;;;;;;;;;;7.86;63.67;99261.19;4960793;28;20374;-77
2023/01/26 08:13:27;;;;;;;;;;;;;;;7.81;65.90;99256.25;4961692;28;20000;-75
2023/01/26 08:15:52;;;;;;;;;;;;;;;7.90;69.51;99260.91;4976724;28;20342;-75
2023/01/26 08:18:17;;;;;;;;;;;;;;;8.33;75.33;99255.88;4961340;28;20381;-76
2023/01/26 08:20:52;;;;;;;;;;;;;;;8.38;70.62;99253.00;4977325;28;19918;-77
2023/01/26 08:23:17;;;;;;;;;;;;;;;8.30;67.36;99250.84;4977830;28;19992;-75
2023/01/26 08:25:43;;;;;;;;;;;;;;;8.23;66.03;99249.50;4977244;28;20376;-75
2023/01/26 08:28:08;;;;;;;;;;;;;;;8.16;65.30;99261.22;4960897;28;19918;-76
2023/01/26 08:30:35;;;;;;;;;;;;;;;8.08;64.54;99274.66;4961022;28;20297;-74
2023/01/26 08:33:00;;;;;;;;;;;;;;;7.97;64.26;99283.06;4977278;28;19917;-72
2023/01/26 08:35:26;;;;;;;;;;;;;;;8.06;69.68;99273.88;4977194;28;19967;-79
2023/01/26 08:37:51;;;;;;;;;;;;;;;8.06;67.19;99262.66;4960846;28;19983;-80
2023/01/26 08:40:16;;;;;;;;;;;;;;;8.01;65.77;99275.09;4960809;28;19964;-79
2023/01/26 08:42:42;;;;;;;;;;;;;;;7.95;65.10;99278.88;4994574;28;19924;-78
2023/01/26 08:45:07;;;;;;;;;;;;;;;7.92;63.65;99279.91;4994364;28;20435;-80
2023/01/26 08:47:32;;;;;;;;;;;;;;;7.90;62.75;99280.91;4977030;28;19917;-78
2023/01/26 08:49:58;;;;;;;;;;;;;;;7.86;61.88;99267.25;4976830;28;20380;-82
2023/01/26 08:52:23;;;;;;;;;;;;;;;7.82;61.39;99268.31;4960683;28;19961;-80
2023/01/26 08:54:48;;;;;;;;;;;;;;;7.78;60.99;99270.25;4976638;28;19918;-78
2023/01/26 08:57:14;;;;;;;;;;;;;;;7.74;60.71;99270.53;4994305;28;19972;-76
2023/01/26 08:59:39;;;;;;;;;;;;;;;7.73;60.06;99268.84;4976514;28;19972;-78
2023/01/26 09:02:04;;;;;;;;;;;;;;;7.72;60.12;99259.38;4976610;28;19922;-76
2023/01/26 09:04:30;;;;;;;;;;;;;;;7.69;59.98;99257.78;4975807;28;19918;-74
2023/01/26 09:06:55;;;;;;;;;;;;;;;7.68;60.05;99265.66;4976329;28;19922;-74
2023/01/26 09:09:20;;;;;;;;;;;;;;;7.75;67.34;99262.63;4960168;28;20037;-76
2023/01/26 09:11:46;;;;;;;;;;;;;;;7.85;68.02;99256.94;4960128;28;20024;-79
2023/01/26 09:14:11;;;;;;;;;;;;;;;7.82;65.25;99250.13;4960308;28;20012;-79
2023/01/26 09:16:36;;;;;;;;;;;;;;;7.79;63.92;99251.13;4960027;28;19925;-77
2023/01/26 09:19:02;;;;;;;;;;;;;;;7.77;64.67;99245.19;4960383;28;19974;-77
2023/01/26 09:21:27;;;;;;;;;;;;;;;7.76;64.20;99238.34;4960008;28;19918;-79
2023/01/26 09:23:54;;;;;;;;;;;;;;;7.72;63.54;99230.81;4960323;28;19918;-81
2023/01/26 09:26:19;;;;;;;;;;;;;;;7.65;62.95;99227.69;4959915;28;19968;-81
2023/01/26 09:28:48;;;;;;;;;;;;;;;7.64;61.98;99212.19;4992341;28;19926;-83
2023/01/26 09:31:13;;;;;;;;;;;;;;;7.58;61.41;99200.38;4959452;28;19929;-80
2023/01/26 09:33:38;;;;;;;;;;;;;;;7.56;61.09;99197.88;4976449;28;20285;-80
2023/01/26 09:36:04;;;;;;;;;;;;;;;7.55;60.84;99193.59;4959748;28;20301;-78
2023/01/26 09:38:30;;;;;;;;;;;;;;;7.55;61.15;99184.97;4960079;28;20396;-79
2023/01/26 09:40:55;;;;;;;;;;;;;;;7.53;60.56;99181.63;4975922;28;19918;-80
2023/01/26 09:43:26;;;;;;;;;;;;;;;7.50;60.33;99177.44;4975958;28;19968;-80
2023/01/26 09:45:58;;;;;;;;;;;;;;;7.47;60.07;99167.22;4976117;28;19917;-82
2023/01/26 09:48:26;;;;;;;;;;;;;;;7.45;60.34;99156.09;4993421;28;19961;-80
2023/01/26 09:51:00;;;;;;;;;;;;;;;7.44;60.21;99157.00;4975804;28;19918;-80
2023/01/26 09:53:26;;;;;;;;;;;;;;;7.45;59.79;99155.22;4993849;28;19932;-80
2023/01/26 09:55:51;;;;;;;;;;;;;;;7.43;60.07;99145.78;4959968;28;19917;-81
2023/01/26 09:58:23;;;;;;;;;;;;;;;7.46;59.75;99136.97;4959824;28;20297;-80
2023/01/26 10:00:49;;;;;;;;;;;;;;;7.48;59.69;99139.47;4976085;28;19918;-82
2023/01/26 10:03:17;;;;;;;;;;;;;;;7.50;59.32;99135.06;4959875;28;19976;-81
2023/01/26 10:05:57;;;;;;;;;;;;;;;7.54;58.73;99131.34;4993535;28;19917;-81
2023/01/26 10:08:22;;;;;;;;;;;;;;;7.58;58.53;99114.66;4975574;28;19965;-81
2023/01/26 10:10:58;;;;;;;;;;;;;;;7.62;58.75;99110.94;4959896;28;19972;-81
2023/01/26 10:13:24;;;;;;;;;;;;;;;7.65;58.36;99104.72;4959713;28;19918;-81
2023/01/26 10:15:51;;;;;;;;;;;;;;;7.66;58.13;99112.44;4961301;28;19976;-81
2023/01/26 10:18:17;;;;;;;;;;;;;;;7.69;58.12;99101.88;4964011;28;20290;-82
2023/01/26 10:20:44;;;;;;;;;;;;;;;7.73;57.95;99097.31;4963628;28;19925;-81
2023/01/26 10:23:15;;;;;;;;;;;;;;;7.74;58.24;99093.81;4963687;28;19918;-83
2023/01/26 10:25:40;;;;;;;;;;;;;;;7.78;58.01;99082.31;4980371;28;19918;-81
2023/01/26 10:28:29;;;;;;;;;;;;;;;7.78;58.14;99080.53;4963450;28;19926;-80
2023/01/26 10:30:54;;;;;;;;;;;;;;;7.84;57.47;99073.31;4918441;29;19923;-83
2023/01/26 10:33:35;;;;;;;;;;;;;;;7.87;57.38;99052.31;4886667;29;20010;-81
2023/01/26 10:36:01;;;;;;;;;;;;;;;7.90;57.24;99044.34;4918515;29;19919;-82
2023/01/26 10:38:32;;;;;;;;;;;;;;;7.93;57.22;99037.19;4887304;29;20379;-81
2023/01/26 10:40:58;;;;;;;;;;;;;;;7.99;57.00;99027.38;4902700;29;19927;-81
2023/01/26 10:43:23;;;;;;;;;;;;;;;8.02;57.20;99012.41;4887363;29;19919;-85
2023/01/26 10:45:49;;;;;;;;;;;;;;;8.04;57.38;99014.91;4887165;29;20430;-82
2023/01/26 10:48:17;;;;;;;;;;;;;;;8.04;57.08;99002.75;4903830;29;20420;-83
2023/01/26 10:50:43;;;;;;;;;;;;;;;8.06;57.32;99010.44;4902085;29;19919;-85
2023/01/26 10:53:13;;;;;;;;;;;;;;;8.05;57.15;99006.16;4886875;29;20026;-84
2023/01/26 10:55:38;;;;;;;;;;;;;;;8.01;57.50;99004.72;4886391;29;19919;-83
2023/01/26 10:58:03;;;;;;;;;;;;;;;8.01;57.34;98999.50;4902269;29;20014;-83
2023/01/26 11:00:30;;;;;;;;;;;;;;;7.95;57.63;98998.97;4886711;29;19919;-83
2023/01/26 11:03:03;;;;;;;;;;;;;;;7.92;57.95;98988.75;4904478;29;19982;-83
2023/01/26 11:05:28;;;;;;;;;;;;;;;7.91;57.68;98988.84;4902589;29;20383;-84
2023/01/26 11:07:57;;;;;;;;;;;;;;;7.91;57.47;98986.25;4925760;28;19926;-82
2023/01/26 11:10:24;;;;;;;;;;;;;;;7.88;57.84;98973.44;4963805;28;20040;-82
2023/01/26 11:12:51;;;;;;;;;;;;;;;7.87;57.73;98972.56;4981823;28;20012;-85
2023/01/26 11:15:16;;;;;;;;;;;;;;;7.86;57.88;98965.72;4964703;28;19940;-83
2023/01/26 11:17:47;;;;;;;;;;;;;;;7.86;57.76;98957.94;4978960;28;20013;-82
2023/01/26 11:20:25;;;;;;;;;;;;;;;7.85;58.02;98953.66;4962640;28;20405;-80
2023/01/26 11:22:50;;;;;;;;;;;;;;;7.86;58.20;98952.72;4978867;28;19917;-83
2023/01/26 11:25:19;;;;;;;;;;;;;;;7.86;58.42;98952.72;4978742;28;19918;-81
2023/01/26 11:27:44;;;;;;;;;;;;;;;7.84;58.12;98961.53;4978484;28;19925;-81
2023/01/26 11:30:21;;;;;;;;;;;;;;;7.81;58.00;98962.56;4996063;28;20324;-81
2023/01/26 11:32:53;;;;;;;;;;;;;;;7.81;58.33;98959.94;4979626;28;20301;-81
2023/01/26 11:35:35;;;;;;;;;;;;;;;7.78;58.35;98953.19;4978320;28;20012;-83
2023/01/26 11:38:00;;;;;;;;;;;;;;;7.77;58.27;98961.91;4962384;28;19924;-80
2023/01/26 11:40:40;;;;;;;;;;;;;;;7.75;58.23;98953.38;4996471;28;19917;-81
2023/01/26 11:43:25;;;;;;;;;;;;;;;7.72;58.62;98950.97;4978085;28;20019;-82
2023/01/26 11:46:05;;;;;;;;;;;;;;;7.71;58.86;98941.50;4978376;28;20056;-81
2023/01/26 11:48:44;;;;;;;;;;;;;;;7.69;58.90;98945.97;4980037;28;20056;-81
2023/01/26 11:51:28;;;;;;;;;;;;;;;7.69;58.91;98942.53;4978665;28;19930;-82
2023/01/26 11:54:13;;;;;;;;;;;;;;;7.68;58.76;98944.28;4996044;28;19925;-81
2023/01/26 11:56:49;;;;;;;;;;;;;;;7.69;58.79;98940.75;4976944;28;19918;-83
2023/01/26 11:59:20;;;;;;;;;;;;;;;7.67;59.10;98934.84;4962010;28;20008;-81
2023/01/26 12:01:49;;;;;;;;;;;;;;;7.68;59.50;98922.66;4962039;28;20012;-83
2023/01/26 12:04:18;;;;;;;;;;;;;;;7.70;59.43;98926.84;4995162;28;20543;-83
2023/01/26 12:06:52;;;;;;;;;;;;;;;7.67;59.81;98921.84;4978268;28;19922;-85
2023/01/26 12:09:56;;;;;;;;;;;;;;;7.68;59.44;98913.09;4978849;28;19983;-82
2023/01/26 12:12:30;;;;;;;;;;;;;;;7.71;59.56;98909.50;4917585;29;19923;-82
2023/01/26 12:15:02;;;;;;;;;;;;;;;7.70;59.75;98903.47;4901128;29;20018;-81
2023/01/26 12:17:53;;;;;;;;;;;;;;;7.71;59.90;98897.31;4884375;29;19927;-81
2023/01/26 12:20:18;;;;;;;;;;;;;;;7.73;59.75;98885.09;4885783;29;19967;-83
2023/01/26 12:22:48;;;;;;;;;;;;;;;7.74;59.67;98880.72;4900789;29;19926;-83
2023/01/26 12:25:17;;;;;;;;;;;;;;;7.76;59.58;98876.25;4902127;29;19926;-83
2023/01/26 12:28:00;;;;;;;;;;;;;;;7.77;59.54;98868.34;4900628;29;19919;-82
2023/01/26 12:30:29;;;;;;;;;;;;;;;7.78;59.90;98870.03;4900474;29;19926;-82
2023/01/26 12:32:54;;;;;;;;;;;;;;;7.79;59.56;98868.25;4884668;29;19923;-83
2023/01/26 12:35:43;;;;;;;;;;;;;;;7.79;59.59;98855.28;4884434;29;19928;-83
2023/01/26 12:38:13;;;;;;;;;;;;;;;7.78;59.72;98859.66;4844101;29;19921;-82
2023/01/26 12:40:44;;;;;;;;;;;;;;;7.79;59.72;98852.66;4829198;29;19937;-82
2023/01/26 12:43:26;;;;;;;;;;;;;;;7.81;59.74;98866.41;4883327;29;19926;-81
2023/01/26 12:45:52;;;;;;;;;;;;;;;7.79;60.12;98866.50;4920590;29;19922;-85
2023/01/26 12:48:17;;;;;;;;;;;;;;;7.81;59.77;98868.16;4903552;29;19926;-85
2023/01/26 12:50:43;;;;;;;;;;;;;;;7.78;60.35;98872.63;4935057;29;20399;-82
2023/01/26 12:53:37;;;;;;;;;;;;;;;7.79;60.07;98866.50;4919691;29;19970;-81
2023/01/26 12:56:24;;;;;;;;;;;;;;;7.78;60.01;98870.03;4910150;29;19925;-82
2023/01/26 12:58:49;;;;;;;;;;;;;;;7.78;60.58;98867.44;4920346;29;19925;-82
2023/01/26 13:01:16;;;;;;;;;;;;;;;7.79;60.05;98866.50;4907121;29;19926;-83
2023/01/26 13:03:42;;;;;;;;;;;;;;;7.79;60.36;98868.25;4904631;29;19923;-82
2023/01/26 13:06:13;;;;;;;;;;;;;;;7.79;60.31;98853.50;4922128;29;19950;-82
2023/01/26 13:08:40;;;;;;;;;;;;;;;7.77;60.20;98847.56;4937572;29;20010;-82
2023/01/26 13:11:06;;;;;;;;;;;;;;;7.78;60.54;98846.66;4938357;29;20059;-82
2023/01/26 13:13:32;;;;;;;;;;;;;;;7.77;60.43;98850.16;4905655;29;19923;-82
2023/01/26 13:16:15;;;;;;;;;;;;;;;7.78;60.64;98851.84;4952276;28;20016;-82
2023/01/26 13:18:53;;;;;;;;;;;;;;;7.79;60.62;98845.69;4977058;28;20060;-82
2023/01/26 13:21:39;;;;;;;;;;;;;;;7.79;60.60;98842.28;4978611;28;19926;-83
2023/01/26 13:24:16;;;;;;;;;;;;;;;7.78;60.89;98828.47;4994403;28;20125;-81
2023/01/26 13:26:42;;;;;;;;;;;;;;;7.79;60.53;98827.50;4994137;28;20005;-84
2023/01/26 13:29:19;;;;;;;;;;;;;;;7.79;60.61;98821.50;4976627;28;19991;-84
2023/01/26 13:31:44;;;;;;;;;;;;;;;7.77;60.84;98818.97;4993889;28;20455;-82
2023/01/26 13:34:09;;;;;;;;;;;;;;;7.75;61.23;98820.84;4960182;28;19957;-82
2023/01/26 13:36:35;;;;;;;;;;;;;;;7.74;61.04;98816.56;4960426;28;20016;-83
2023/01/26 13:39:24;;;;;;;;;;;;;;;7.74;61.21;98823.56;4960461;28;20020;-82
2023/01/26 13:41:49;;;;;;;;;;;;;;;7.73;61.24;98821.88;4899639;29;19919;-83
2023/01/26 13:44:16;;;;;;;;;;;;;;;7.68;61.41;98814.38;4884416;29;19923;-82
2023/01/26 13:46:42;;;;;;;;;;;;;;;7.69;61.27;98820.41;4900722;29;20011;-83
2023/01/26 13:49:21;;;;;;;;;;;;;;;7.69;61.64;98813.44;4900437;29;19919;-83
2023/01/26 13:51:47;;;;;;;;;;;;;;;7.68;62.20;98805.75;4883902;29;19926;-83
2023/01/26 13:54:12;;;;;;;;;;;;;;;7.67;62.33;98802.31;4884227;29;19919;-82
2023/01/26 13:56:38;;;;;;;;;;;;;;;7.67;62.26;98797.13;4884137;29;20394;-82
2023/01/26 13:59:04;;;;;;;;;;;;;;;7.69;61.77;98786.63;4899620;29;20010;-81